Time;durP1;ratioP1;P1;durP2;ratioP2;P2;SDS_P1;SDS_P2;PMS_P1;PMS_P2;Temp;Humidity;BMP_temperature;BMP_pressure;BME280_temperature;BME280_humidity;BME280_pressure;Samples;Min_cycle;Max_cycle;Signal;HPM_P1;HPM_P2
2022/08/03 00:02:17;;;;;;;0.00;0.00;;;20.10;99.90;226.50;231333.00;;;;5133151;27;20724;-74
2022/08/03 00:04:45;;;;;;;0.00;0.00;;;20.10;99.90;226.50;231333.00;;;;5133015;27;20199;-74
2022/08/03 00:07:13;;;;;;;0.00;0.00;;;20.00;99.90;226.50;231333.00;;;;5132549;27;20598;-74
2022/08/03 00:09:43;;;;;;;0.00;0.00;;;19.80;99.90;226.50;231333.00;;;;5124297;27;20686;-74
2022/08/03 00:12:11;;;;;;;0.00;0.00;;;19.80;99.90;226.50;231333.00;;;;5118556;27;20418;-74
2022/08/03 00:14:39;;;;;;;0.00;0.00;;;19.80;99.90;226.50;231333.00;;;;5133086;27;20403;-74
2022/08/03 00:17:08;;;;;;;0.00;0.00;;;19.70;99.90;226.50;231333.00;;;;5132366;27;20227;-74
2022/08/03 00:19:36;;;;;;;0.00;0.00;;;19.70;99.90;226.50;231333.00;;;;5132820;27;20199;-74
2022/08/03 00:22:04;;;;;;;0.00;0.00;;;19.70;99.90;226.50;231333.00;;;;5137573;22;20236;-73
2022/08/03 00:24:32;;;;;;;0.00;0.00;;;19.60;99.90;226.50;231333.00;;;;5092005;28;20216;-73
2022/08/03 00:27:02;;;;;;;0.00;0.00;;;19.60;99.90;226.50;231333.00;;;;5091839;28;20201;-74
2022/08/03 00:29:30;;;;;;;0.00;0.00;;;19.60;99.90;226.50;231333.00;;;;5091537;28;20604;-74
2022/08/03 00:31:57;;;;;;;0.00;0.00;;;19.70;99.90;226.50;231333.00;;;;5084608;28;20213;-75
2022/08/03 00:34:28;;;;;;;0.00;0.00;;;19.60;99.90;226.50;231333.00;;;;5072034;28;20189;-74
2022/08/03 00:37:15;;;;;;;0.00;0.00;;;19.60;99.90;226.50;231333.00;;;;5051348;28;20218;-75
2022/08/03 00:39:45;;;;;;;0.00;0.00;;;19.60;99.90;226.50;231333.00;;;;5051790;28;20205;-75
2022/08/03 00:42:15;;;;;;;0.00;0.00;;;19.60;99.90;226.50;231333.00;;;;5056658;28;20221;-74
2022/08/03 00:44:45;;;;;;;0.03;0.03;;;19.50;99.90;226.50;231333.00;;;;5053424;28;20221;-73
2022/08/03 00:47:13;;;;;;;0.00;0.00;;;19.40;99.90;226.50;231333.00;;;;5052979;28;20202;-74
2022/08/03 00:49:41;;;;;;;0.00;0.00;;;19.40;99.90;226.50;231333.00;;;;5064033;28;20621;-73
2022/08/03 00:52:11;;;;;;;0.00;0.00;;;19.20;99.90;226.50;231333.00;;;;5072452;28;20201;-73
2022/08/03 00:54:39;;;;;;;0.00;0.00;;;19.10;99.90;226.50;231333.00;;;;5071105;28;20198;-73
2022/08/03 00:57:08;;;;;;;0.00;0.00;;;18.90;99.90;226.50;231333.00;;;;5075128;28;20216;-73
2022/08/03 00:59:38;;;;;;;0.10;0.10;;;19.00;99.90;226.50;231333.00;;;;5092022;28;20190;-74
2022/08/03 01:02:06;;;;;;;0.00;0.00;;;19.10;99.90;226.50;231333.00;;;;5084951;28;20217;-73
2022/08/03 01:04:34;;;;;;;0.00;0.00;;;19.10;99.90;226.50;231333.00;;;;5080828;28;20189;-73
2022/08/03 01:07:16;;;;;;;0.00;0.00;;;19.00;99.90;226.50;231333.00;;;;5056144;28;20228;-73
2022/08/03 01:10:00;;;;;;;0.00;0.00;;;19.10;99.90;226.50;231333.00;;;;5067814;28;20694;-73
2022/08/03 01:12:37;;;;;;;0.00;0.00;;;19.10;99.90;226.50;231333.00;;;;5075448;28;20691;-73
2022/08/03 01:15:15;;;;;;;0.00;0.00;;;19.00;99.90;226.50;231333.00;;;;5054827;28;20208;-72
2022/08/03 01:17:55;;;;;;;0.00;0.00;;;18.80;99.90;226.50;231333.00;;;;5062601;28;20217;-71
2022/08/03 01:20:27;;;;;;;0.00;0.00;;;18.80;99.90;226.50;231333.00;;;;5080003;28;20207;-72
2022/08/03 01:23:16;;;;;;;0.00;0.00;;;18.80;99.90;226.50;231333.00;;;;5062084;28;20224;-72
2022/08/03 01:26:09;;;;;;;0.10;0.10;;;18.80;99.90;226.50;231333.00;;;;5065796;28;20186;-72
2022/08/03 01:29:01;;;;;;;0.00;0.00;;;18.80;99.90;226.50;231333.00;;;;5089768;28;20193;-73
2022/08/03 01:31:39;;;;;;;0.00;0.00;;;18.70;99.90;226.50;231333.00;;;;5071658;28;20217;-72
2022/08/03 01:34:33;;;;;;;0.00;0.00;;;18.60;99.90;226.50;231333.00;;;;5075993;28;20263;-73
2022/08/03 01:37:07;;;;;;;0.00;0.00;;;18.50;99.90;226.50;231333.00;;;;5073131;28;20504;-74
2022/08/03 01:39:39;;;;;;;0.00;0.00;;;18.50;99.90;226.50;231333.00;;;;5075679;28;20198;-74
2022/08/03 01:42:10;;;;;;;0.00;0.00;;;18.50;99.90;226.50;231333.00;;;;5075359;28;20218;-73
2022/08/03 01:44:44;;;;;;;0.00;0.00;;;18.50;99.90;226.50;231333.00;;;;5074661;28;20194;-73
2022/08/03 01:47:15;;;;;;;0.00;0.00;;;18.50;99.90;226.50;231333.00;;;;5055900;28;20565;-73
2022/08/03 01:49:45;;;;;;;0.00;0.00;;;18.40;99.90;226.50;231333.00;;;;5061899;28;20198;-73
2022/08/03 01:52:18;;;;;;;0.00;0.00;;;18.30;99.90;226.50;231333.00;;;;5076461;28;20228;-72
2022/08/03 01:54:51;;;;;;;0.00;0.00;;;18.30;99.90;226.50;231333.00;;;;5075037;28;20904;-72
2022/08/03 01:57:22;;;;;;;0.00;0.00;;;18.30;99.90;226.50;231333.00;;;;5063122;28;20209;-73
2022/08/03 01:59:52;;;;;;;0.00;0.00;;;18.30;99.90;226.50;231333.00;;;;5074218;28;20185;-73
2022/08/03 02:02:23;;;;;;;0.00;0.00;;;18.30;99.90;226.50;231333.00;;;;5087543;28;20224;-72
2022/08/03 02:05:04;;;;;;;0.00;0.00;;;18.20;99.90;226.50;231333.00;;;;5066324;28;20190;-72
2022/08/03 02:07:40;;;;;;;0.00;0.00;;;18.20;99.90;226.50;231333.00;;;;5054029;28;20281;-72
2022/08/03 02:10:12;;;;;;;0.00;0.00;;;18.20;99.90;226.50;231333.00;;;;5053278;28;20186;-73
2022/08/03 02:12:44;;;;;;;0.00;0.00;;;18.30;99.90;226.50;231333.00;;;;5058875;28;20627;-73
2022/08/03 02:15:18;;;;;;;0.00;0.00;;;18.30;99.90;226.50;231333.00;;;;5073456;28;20198;-72
2022/08/03 02:17:48;;;;;;;0.00;0.00;;;18.30;99.90;226.50;231333.00;;;;5074210;28;20225;-73
2022/08/03 02:20:18;;;;;;;0.00;0.00;;;18.20;99.90;226.50;231333.00;;;;5062839;28;20193;-73
2022/08/03 02:22:47;;;;;;;0.00;0.00;;;18.10;99.90;226.50;231333.00;;;;5088929;28;20225;-73
2022/08/03 02:25:16;;;;;;;0.10;0.10;;;18.00;99.90;226.50;231333.00;;;;5084502;28;20200;-72
2022/08/03 02:27:54;;;;;;;0.00;0.00;;;17.90;99.90;226.50;231333.00;;;;5073985;28;20648;-73
2022/08/03 02:30:33;;;;;;;0.00;0.00;;;17.80;99.90;226.50;231333.00;;;;5073899;28;20197;-72
2022/08/03 02:33:03;;;;;;;0.00;0.00;;;17.80;99.90;226.50;231333.00;;;;5075778;28;20209;-72
2022/08/03 02:35:35;;;;;;;0.00;0.00;;;17.80;99.90;226.50;231333.00;;;;5061795;28;20209;-73
2022/08/03 02:38:07;;;;;;;0.00;0.00;;;17.80;99.90;226.50;231333.00;;;;5053173;28;20222;-73
2022/08/03 02:40:38;;;;;;;0.00;0.00;;;17.80;99.90;226.50;231333.00;;;;5053774;28;20190;-73
2022/08/03 02:43:12;;;;;;;0.00;0.00;;;17.80;99.90;226.50;231333.00;;;;5058654;28;20703;-73
2022/08/03 02:45:46;;;;;;;0.00;0.00;;;17.80;99.90;226.50;231333.00;;;;5055581;28;20197;-73
2022/08/03 02:48:22;;;;;;;0.00;0.00;;;17.80;99.90;226.50;231333.00;;;;5077353;28;20201;-73
2022/08/03 02:50:53;;;;;;;0.00;0.00;;;17.80;99.90;226.50;231333.00;;;;5071676;28;20193;-73
2022/08/03 02:53:23;;;;;;;0.00;0.00;;;17.60;99.90;226.50;231333.00;;;;5093372;28;20216;-72
2022/08/03 02:55:55;;;;;;;0.00;0.00;;;17.70;99.90;226.50;231333.00;;;;5065855;28;20197;-73
2022/08/03 02:58:24;;;;;;;0.00;0.00;;;17.70;99.90;226.50;231333.00;;;;5052936;28;20230;-73
2022/08/03 03:00:55;;;;;;;0.00;0.00;;;17.50;99.90;226.50;231333.00;;;;5073453;28;20246;-74
2022/08/03 03:03:26;;;;;;;0.00;0.00;;;17.30;99.90;226.50;231333.00;;;;5093559;28;20579;-73
2022/08/03 03:05:58;;;;;;;0.00;0.00;;;17.30;99.90;226.50;231333.00;;;;5063319;28;20193;-73
2022/08/03 03:08:27;;;;;;;0.00;0.00;;;17.40;99.90;226.50;231333.00;;;;5090494;28;20200;-73
2022/08/03 03:10:58;;;;;;;0.10;0.10;;;17.30;99.90;226.50;231333.00;;;;5069782;28;20664;-74
2022/08/03 03:13:29;;;;;;;0.00;0.00;;;17.40;99.90;226.50;231333.00;;;;5072979;28;20592;-73
2022/08/03 03:16:02;;;;;;;0.00;0.00;;;17.30;99.90;226.50;231333.00;;;;5072817;28;20400;-73
2022/08/03 03:18:33;;;;;;;0.00;0.00;;;17.30;99.90;226.50;231333.00;;;;5086529;28;20225;-73
2022/08/03 03:21:04;;;;;;;0.00;0.00;;;17.30;99.90;226.50;231333.00;;;;5072605;28;20181;-73
2022/08/03 03:23:37;;;;;;;0.00;0.00;;;17.30;99.90;226.50;231333.00;;;;5089174;28;20196;-73
2022/08/03 03:26:06;;;;;;;0.00;0.00;;;17.30;99.90;226.50;231333.00;;;;5088926;28;20201;-72
2022/08/03 03:28:37;;;;;;;0.00;0.00;;;17.20;99.90;226.50;231333.00;;;;5077122;28;20189;-73
2022/08/03 03:31:06;;;;;;;0.00;0.00;;;17.20;99.90;226.50;231333.00;;;;5080520;28;20204;-73
2022/08/03 03:33:37;;;;;;;0.00;0.00;;;17.20;99.90;226.50;231333.00;;;;5092848;28;20186;-73
2022/08/03 03:36:07;;;;;;;0.00;0.00;;;17.20;99.90;226.50;231333.00;;;;5061948;28;20217;-73
2022/08/03 03:38:35;;;;;;;0.00;0.00;;;17.20;99.90;226.50;231333.00;;;;5059928;28;20724;-73
2022/08/03 03:41:04;;;;;;;0.00;0.00;;;17.10;99.90;226.50;231333.00;;;;5073102;28;20686;-73
2022/08/03 03:43:33;;;;;;;0.10;0.10;;;17.10;99.90;226.50;231333.00;;;;5072537;28;20193;-72
2022/08/03 03:46:01;;;;;;;0.00;0.00;;;17.10;99.90;226.50;231333.00;;;;5071520;28;20193;-73
2022/08/03 03:48:29;;;;;;;0.00;0.00;;;17.00;99.90;226.50;231333.00;;;;5071391;28;20201;-72
2022/08/03 03:51:01;;;;;;;0.00;0.00;;;17.10;99.90;226.50;231333.00;;;;5082470;28;20543;-73
2022/08/03 03:53:29;;;;;;;0.00;0.00;;;17.00;99.90;226.50;231333.00;;;;5091336;28;20192;-72
2022/08/03 03:55:57;;;;;;;0.00;0.00;;;17.00;99.90;226.50;231333.00;;;;5066726;28;20206;-72
2022/08/03 03:58:32;;;;;;;0.00;0.00;;;16.90;99.90;226.50;231333.00;;;;5061712;28;20698;-71
2022/08/03 04:01:00;;;;;;;0.00;0.00;;;16.90;99.90;226.50;231333.00;;;;5072200;28;20535;-72
2022/08/03 04:03:28;;;;;;;0.00;0.00;;;17.10;99.90;226.50;231333.00;;;;5077497;28;20518;-73
2022/08/03 04:11:39;;;;;;;0.05;0.05;;;17.00;99.90;226.50;231333.00;;;;5092005;28;20209;-74
2022/08/03 04:14:14;;;;;;;0.00;0.00;;;17.00;99.90;226.50;231333.00;;;;5090517;28;20204;-73
2022/08/03 04:16:48;;;;;;;0.10;0.10;;;17.10;99.90;226.50;231333.00;;;;5069829;28;20201;-73
2022/08/03 04:19:26;;;;;;;0.00;0.00;;;17.10;99.90;226.50;231333.00;;;;5073477;28;20733;-73
2022/08/03 04:22:00;;;;;;;0.00;0.00;;;17.00;99.90;226.50;231333.00;;;;5069654;28;20226;-73
2022/08/03 04:24:35;;;;;;;0.00;0.00;;;17.00;99.90;226.50;231333.00;;;;5052486;28;20197;-73
2022/08/03 04:27:08;;;;;;;0.00;0.00;;;17.00;99.90;226.50;231333.00;;;;5071268;28;20194;-73
2022/08/03 04:29:43;;;;;;;0.00;0.00;;;17.10;99.90;226.50;231333.00;;;;5071640;28;20221;-73
2022/08/03 04:32:16;;;;;;;0.00;0.00;;;17.10;99.90;226.50;231333.00;;;;5077451;28;20221;-73
2022/08/03 04:34:45;;;;;;;0.00;0.00;;;17.10;99.90;226.50;231333.00;;;;5072813;28;20197;-73
2022/08/03 04:37:24;;;;;;;0.00;0.00;;;17.10;99.90;226.50;231333.00;;;;5071255;28;20284;-73
2022/08/03 04:39:56;;;;;;;0.00;0.00;;;17.10;99.90;226.50;231333.00;;;;5071259;28;20214;-73
2022/08/03 04:42:26;;;;;;;0.00;0.00;;;17.10;99.90;226.50;231333.00;;;;5071042;28;20220;-73
2022/08/03 04:44:56;;;;;;;0.00;0.00;;;17.10;99.90;226.50;231333.00;;;;5069389;28;20182;-73
2022/08/03 04:47:32;;;;;;;0.10;0.10;;;17.10;99.90;226.50;231333.00;;;;5082838;28;20205;-73
2022/08/03 04:50:01;;;;;;;0.00;0.00;;;17.00;99.90;226.50;231333.00;;;;5062495;28;20200;-73
2022/08/03 04:52:30;;;;;;;0.00;0.00;;;17.00;99.90;226.50;231333.00;;;;5078701;28;20225;-73
2022/08/03 04:54:59;;;;;;;0.00;0.00;;;17.00;99.90;226.50;231333.00;;;;5053409;28;20487;-73
2022/08/03 04:57:27;;;;;;;0.00;0.00;;;17.00;99.90;226.50;231333.00;;;;5071678;28;20239;-73
2022/08/03 04:59:55;;;;;;;0.10;0.10;;;17.00;99.90;226.50;231333.00;;;;5077654;28;20220;-73
2022/08/03 05:02:31;;;;;;;0.00;0.00;;;17.10;99.90;226.50;231333.00;;;;5056861;28;20225;-73
2022/08/03 05:05:00;;;;;;;0.00;0.00;;;17.10;99.90;226.50;231333.00;;;;5060360;28;20205;-73
2022/08/03 05:07:28;;;;;;;0.00;0.00;;;17.20;99.90;226.50;231333.00;;;;5066672;28;20194;-74
2022/08/03 05:10:09;;;;;;;0.03;0.03;;;17.30;99.90;226.50;231333.00;;;;5079091;28;20392;-74
2022/08/03 05:12:45;;;;;;;0.10;0.10;;;17.40;99.90;226.50;231333.00;;;;5079490;28;20221;-74
2022/08/03 05:15:14;;;;;;;0.00;0.00;;;17.40;99.90;226.50;231333.00;;;;5051619;28;20195;-74
2022/08/03 05:17:42;;;;;;;0.00;0.00;;;17.40;99.90;226.50;231333.00;;;;5074476;28;20198;-74
2022/08/03 05:20:11;;;;;;;0.00;0.00;;;17.50;99.90;226.50;231333.00;;;;5071290;28;20213;-74
2022/08/03 05:22:43;;;;;;;0.00;0.00;;;17.60;99.90;226.50;231333.00;;;;5071455;28;20229;-74
2022/08/03 05:25:12;;;;;;;0.00;0.00;;;17.70;99.90;226.50;231333.00;;;;5072114;28;20201;-74
2022/08/03 05:27:46;;;;;;;0.00;0.00;;;17.70;99.90;226.50;231333.00;;;;5078375;28;20200;-74
2022/08/03 05:30:17;;;;;;;0.00;0.00;;;17.80;99.90;226.50;231333.00;;;;5096574;28;20201;-74
2022/08/03 05:33:00;;;;;;;0.00;0.00;;;17.90;99.90;226.50;231333.00;;;;5077615;28;20270;-74
2022/08/03 05:35:28;;;;;;;0.00;0.00;;;18.00;99.90;226.50;231333.00;;;;5072805;28;20198;-74
2022/08/03 05:38:16;;;;;;;0.00;0.00;;;18.10;99.90;226.50;231333.00;;;;5072349;28;20593;-73
2022/08/03 05:40:57;;;;;;;0.00;0.00;;;18.20;99.90;226.50;231333.00;;;;5072658;28;20200;-73
2022/08/03 05:43:46;;;;;;;0.00;0.00;;;18.20;99.90;226.50;231333.00;;;;5073374;28;20201;-74
2022/08/03 05:46:14;;;;;;;0.00;0.00;;;18.30;99.90;226.50;231333.00;;;;5077225;28;20193;-73
2022/08/03 05:48:43;;;;;;;0.10;0.10;;;18.40;99.90;226.50;231333.00;;;;5075870;28;20684;-74
2022/08/03 05:51:12;;;;;;;0.00;0.00;;;18.50;99.90;226.50;231333.00;;;;5076165;28;20196;-73
2022/08/03 05:53:40;;;;;;;0.10;0.10;;;18.60;99.90;226.50;231333.00;;;;5076190;28;20280;-74
2022/08/03 05:56:11;;;;;;;0.00;0.00;;;18.70;99.90;226.50;231333.00;;;;5075709;28;20187;-74
2022/08/03 05:58:42;;;;;;;0.00;0.00;;;18.80;99.90;226.50;231333.00;;;;5074364;28;20300;-73
2022/08/03 06:01:10;;;;;;;0.00;0.00;;;18.90;99.90;226.50;231333.00;;;;5074242;28;20225;-74
2022/08/03 06:03:38;;;;;;;0.00;0.00;;;19.00;99.90;226.50;231333.00;;;;5074519;28;20218;-74
2022/08/03 06:06:06;;;;;;;0.00;0.00;;;19.00;99.90;226.50;231333.00;;;;5074249;28;20273;-73
2022/08/03 06:08:35;;;;;;;0.00;0.00;;;19.00;99.90;226.50;231333.00;;;;5074350;28;20277;-74
2022/08/03 06:11:03;;;;;;;0.00;0.00;;;19.10;99.90;226.50;231333.00;;;;5074075;28;20201;-74
2022/08/03 06:13:33;;;;;;;0.00;0.00;;;19.20;99.90;226.50;231333.00;;;;5074467;28;20190;-73
2022/08/03 06:16:01;;;;;;;0.00;0.00;;;19.30;99.90;226.50;231333.00;;;;5074475;28;20200;-74
2022/08/03 06:18:29;;;;;;;0.00;0.00;;;19.40;99.90;226.50;231333.00;;;;5074104;28;20198;-74
2022/08/03 06:20:56;;;;;;;0.00;0.00;;;19.50;99.90;226.50;231333.00;;;;5074234;28;20232;-74
2022/08/03 06:23:46;;;;;;;0.00;0.00;;;19.60;99.90;226.50;231333.00;;;;5047719;28;20669;-76
2022/08/03 06:26:24;;;;;;;0.00;0.00;;;19.70;99.90;226.50;231333.00;;;;5049673;28;20548;-76
2022/08/03 06:28:54;;;;;;;0.00;0.00;;;19.80;99.90;226.50;231333.00;;;;5035196;28;20206;-76
2022/08/03 06:31:26;;;;;;;0.00;0.00;;;19.90;99.90;226.50;231333.00;;;;5034978;28;20665;-77
2022/08/03 06:34:02;;;;;;;0.00;0.00;;;20.00;99.90;226.50;231333.00;;;;5034294;28;20218;-76
2022/08/03 06:36:50;;;;;;;0.00;0.00;;;20.10;99.90;226.50;231333.00;;;;5034359;28;20187;-77
2022/08/03 06:39:20;;;;;;;0.00;0.00;;;20.20;99.90;226.50;231333.00;;;;5038812;28;20630;-75
2022/08/03 06:41:52;;;;;;;0.00;0.00;;;20.30;99.90;226.50;231333.00;;;;5042293;28;20214;-75
2022/08/03 06:44:22;;;;;;;0.00;0.00;;;20.50;99.90;226.50;231333.00;;;;5041552;28;20187;-75
2022/08/03 06:46:50;;;;;;;0.00;0.00;;;20.50;99.90;226.50;231333.00;;;;5041991;28;20205;-76
2022/08/03 06:49:18;;;;;;;0.00;0.00;;;20.60;99.90;226.50;231333.00;;;;5040535;28;20692;-75
2022/08/03 06:51:47;;;;;;;0.00;0.00;;;20.80;99.90;226.50;231333.00;;;;5036012;28;20709;-76
2022/08/03 06:54:34;;;;;;;0.00;0.00;;;20.90;99.90;226.50;231333.00;;;;5033473;28;20206;-76
2022/08/03 06:57:03;;;;;;;0.00;0.00;;;20.90;99.90;226.50;231333.00;;;;5032610;28;20633;-77
2022/08/03 06:59:32;;;;;;;0.00;0.00;;;21.10;99.90;226.50;231333.00;;;;5032043;28;20568;-75
2022/08/03 07:02:20;;;;;;;0.00;0.00;;;21.30;99.90;226.50;231333.00;;;;5032552;28;20736;-77
2022/08/03 07:04:49;;;;;;;0.00;0.00;;;21.40;99.90;226.50;231333.00;;;;5033428;28;20196;-76
2022/08/03 07:07:18;;;;;;;0.00;0.00;;;21.60;99.90;226.50;231333.00;;;;5033212;28;20658;-75
2022/08/03 07:09:46;;;;;;;0.00;0.00;;;21.70;99.90;226.50;231333.00;;;;5033157;28;20209;-76
2022/08/03 07:12:26;;;;;;;0.00;0.00;;;21.80;99.90;226.50;231333.00;;;;5032896;28;20230;-76
2022/08/03 07:14:57;;;;;;;0.00;0.00;;;22.00;99.90;226.50;231333.00;;;;5033483;28;20408;-77
2022/08/03 07:17:29;;;;;;;0.00;0.00;;;22.20;99.90;226.50;231333.00;;;;5033313;28;20223;-76
2022/08/03 07:19:58;;;;;;;0.00;0.00;;;22.50;99.90;226.50;231333.00;;;;5033144;28;20273;-76
2022/08/03 07:22:27;;;;;;;0.00;0.00;;;22.60;99.90;226.50;231333.00;;;;5042178;28;20222;-76
2022/08/03 07:24:56;;;;;;;0.00;0.00;;;22.80;99.90;226.50;231333.00;;;;5049152;28;20245;-77
2022/08/03 07:27:25;;;;;;;0.00;0.00;;;22.90;99.90;226.50;231333.00;;;;5033000;28;20199;-77
2022/08/03 07:29:54;;;;;;;0.00;0.00;;;23.10;99.90;226.50;231333.00;;;;5046623;28;20241;-76
2022/08/03 07:32:24;;;;;;;0.00;0.00;;;23.30;99.90;226.50;231333.00;;;;5052477;28;20305;-76
2022/08/03 07:34:52;;;;;;;0.00;0.00;;;23.50;99.90;226.50;231333.00;;;;5033158;28;20214;-76
2022/08/03 07:37:27;;;;;;;0.00;0.00;;;23.90;99.90;226.50;231333.00;;;;5031967;28;20205;-76
2022/08/03 07:39:55;;;;;;;0.00;0.00;;;23.90;99.90;226.50;231333.00;;;;5045589;28;20229;-76
2022/08/03 07:42:23;;;;;;;0.00;0.00;;;24.10;99.90;226.50;231333.00;;;;5047243;28;20226;-76
2022/08/03 07:44:52;;;;;;;0.00;0.00;;;24.30;99.90;226.50;231333.00;;;;5032446;28;20254;-77
2022/08/03 07:47:20;;;;;;;0.00;0.00;;;24.70;99.90;226.50;231333.00;;;;5032150;28;20195;-77
2022/08/03 07:49:51;;;;;;;0.00;0.00;;;24.80;99.90;226.50;231333.00;;;;5032612;28;20206;-76
2022/08/03 07:55:06;;;;;;;0.00;0.00;;;25.00;99.90;226.50;231333.00;;;;5032747;28;20195;-75
2022/08/03 07:57:35;;;;;;;0.00;0.00;;;25.10;99.90;226.50;231333.00;;;;5032529;28;20199;-75
2022/08/03 08:00:07;;;;;;;0.00;0.00;;;25.10;99.90;226.50;231333.00;;;;5032627;28;20210;-75
2022/08/03 08:02:42;;;;;;;0.00;0.00;;;25.30;99.90;226.50;231333.00;;;;5032640;28;20218;-75
2022/08/03 08:05:12;;;;;;;0.00;0.00;;;25.40;99.90;226.50;231333.00;;;;5032438;28;20195;-75
2022/08/03 08:07:40;;;;;;;0.00;0.00;;;25.60;99.90;226.50;231333.00;;;;5032135;28;20218;-75
2022/08/03 08:10:10;;;;;;;0.00;0.00;;;25.70;99.90;226.50;231333.00;;;;5031876;28;20261;-76
2022/08/03 08:12:40;;;;;;;0.00;0.00;;;25.90;99.90;226.50;231333.00;;;;5032184;28;20635;-75
2022/08/03 08:15:09;;;;;;;0.00;0.00;;;26.20;99.90;226.50;231333.00;;;;5032039;28;20199;-75
2022/08/03 08:17:46;;;;;;;0.00;0.00;;;26.40;99.90;226.50;231333.00;;;;5031529;28;20191;-76
2022/08/03 08:20:19;;;;;;;0.00;0.00;;;26.50;99.90;226.50;231333.00;;;;5013688;28;20233;-76
2022/08/03 08:23:00;;;;;;;0.00;0.00;;;26.80;99.90;226.50;231333.00;;;;5032141;28;20254;-75
2022/08/03 08:25:31;;;;;;;0.00;0.00;;;27.00;99.90;226.50;231333.00;;;;5032057;28;20191;-75
2022/08/03 08:28:01;;;;;;;0.00;0.00;;;27.20;99.90;226.50;231333.00;;;;5031627;28;20222;-77
2022/08/03 08:30:50;;;;;;;0.00;0.00;;;27.40;99.90;226.50;231333.00;;;;5038292;28;20203;-76
2022/08/03 08:33:17;;;;;;;0.00;0.00;;;27.40;99.90;226.50;231333.00;;;;5035187;28;20758;-76
2022/08/03 08:35:53;;;;;;;0.00;0.00;;;27.60;99.90;226.50;231333.00;;;;5038596;28;20202;-75
2022/08/03 08:38:22;;;;;;;0.00;0.00;;;27.70;99.90;226.50;231333.00;;;;5034922;28;20585;-75
2022/08/03 08:40:50;;;;;;;0.00;0.00;;;27.80;98.80;226.50;231333.00;;;;5031625;28;20227;-76
2022/08/03 08:43:18;;;;;;;0.00;0.00;;;27.70;97.20;226.50;231333.00;;;;5036011;28;20221;-75
2022/08/03 08:45:49;;;;;;;0.00;0.00;;;27.90;97.50;226.50;231333.00;;;;5051851;28;20626;-76
2022/08/03 08:48:22;;;;;;;0.00;0.00;;;28.20;97.00;226.50;231333.00;;;;5051309;28;20206;-76
2022/08/03 08:50:55;;;;;;;0.00;0.00;;;28.30;97.90;226.50;231333.00;;;;5052128;28;20213;-76
2022/08/03 08:53:31;;;;;;;0.00;0.00;;;28.50;97.10;226.50;231333.00;;;;5051439;28;20214;-76
2022/08/03 08:56:02;;;;;;;0.00;0.00;;;28.60;96.20;226.50;231333.00;;;;5051678;28;20552;-76
2022/08/03 08:58:36;;;;;;;0.00;0.00;;;28.70;96.20;226.50;231333.00;;;;5050686;28;20201;-77
2022/08/03 09:01:05;;;;;;;0.00;0.00;;;28.80;95.90;226.50;231333.00;;;;5051150;28;20222;-76
2022/08/03 09:03:33;;;;;;;0.00;0.00;;;28.90;95.10;226.50;231333.00;;;;5051358;28;20679;-77
2022/08/03 09:06:04;;;;;;;0.00;0.00;;;28.90;95.20;226.50;231333.00;;;;5051251;28;20205;-77
2022/08/03 09:08:33;;;;;;;0.00;0.00;;;29.10;95.50;226.50;231333.00;;;;5050772;28;20269;-77
2022/08/03 09:11:01;;;;;;;0.00;0.00;;;29.30;94.80;226.50;231333.00;;;;5051042;28;20198;-78
2022/08/03 09:13:30;;;;;;;0.00;0.00;;;29.20;94.50;226.50;231333.00;;;;5051203;28;20324;-77
2022/08/03 09:16:14;;;;;;;0.00;0.00;;;29.20;94.10;226.50;231333.00;;;;5033270;28;20190;-77
2022/08/03 09:18:44;;;;;;;0.00;0.00;;;29.20;94.70;226.50;231333.00;;;;5051539;28;20194;-77
2022/08/03 09:21:17;;;;;;;0.00;0.00;;;29.40;94.60;226.50;231333.00;;;;5055235;28;20214;-77
2022/08/03 09:24:05;;;;;;;0.00;0.00;;;29.70;93.70;226.50;231333.00;;;;5054617;28;20230;-77
2022/08/03 09:26:40;;;;;;;0.00;0.00;;;30.00;93.80;226.50;231333.00;;;;5054255;28;20273;-77
2022/08/03 09:29:11;;;;;;;0.00;0.00;;;30.20;92.40;226.50;231333.00;;;;5054455;28;20193;-77
2022/08/03 09:31:46;;;;;;;0.00;0.00;;;30.40;92.10;226.50;231333.00;;;;5055091;28;20213;-77
2022/08/03 09:34:16;;;;;;;0.00;0.00;;;30.50;91.40;226.50;231333.00;;;;5054787;28;20195;-77
2022/08/03 09:36:47;;;;;;;0.00;0.00;;;30.60;90.40;226.50;231333.00;;;;5054928;28;20199;-77
2022/08/03 09:39:17;;;;;;;0.00;0.00;;;30.80;90.60;226.50;231333.00;;;;5054973;28;20198;-78
2022/08/03 09:41:48;;;;;;;0.00;0.00;;;30.70;90.00;226.50;231333.00;;;;5054780;28;20226;-77
2022/08/03 09:44:20;;;;;;;0.00;0.00;;;30.70;90.10;226.50;231333.00;;;;5054538;28;20201;-77
2022/08/03 09:46:55;;;;;;;0.00;0.00;;;30.60;89.30;226.50;231333.00;;;;5053543;28;20665;-75
2022/08/03 09:49:24;;;;;;;0.00;0.00;;;30.60;89.50;226.50;231333.00;;;;5054180;28;20289;-76
2022/08/03 09:51:54;;;;;;;0.00;0.00;;;30.70;88.50;226.50;231333.00;;;;5053560;28;20218;-76
2022/08/03 09:54:43;;;;;;;0.00;0.00;;;30.80;87.90;226.50;231333.00;;;;5053838;28;20285;-75
2022/08/03 09:57:22;;;;;;;0.00;0.00;;;30.90;88.00;226.50;231333.00;;;;5054223;28;20194;-76
2022/08/03 09:59:51;;;;;;;0.00;0.00;;;31.10;85.50;226.50;231333.00;;;;5054412;28;20191;-75
2022/08/03 10:02:40;;;;;;;0.00;0.00;;;30.70;85.80;226.50;231333.00;;;;5054537;28;20222;-76
2022/08/03 10:05:11;;;;;;;0.00;0.00;;;30.90;86.20;226.50;231333.00;;;;5054307;28;20194;-75
2022/08/03 10:07:49;;;;;;;0.00;0.00;;;30.90;86.00;226.50;231333.00;;;;5052001;28;20199;-77
2022/08/03 10:10:18;;;;;;;0.00;0.00;;;30.90;84.70;226.50;231333.00;;;;5033636;28;20294;-76
2022/08/03 10:13:00;;;;;;;0.00;0.00;;;30.90;83.90;226.50;231333.00;;;;5038147;28;20725;-76
2022/08/03 10:15:29;;;;;;;0.00;0.00;;;30.80;84.80;226.50;231333.00;;;;5042239;28;20208;-76
2022/08/03 10:18:17;;;;;;;0.00;0.00;;;31.10;85.20;226.50;231333.00;;;;5053835;28;20199;-75
2022/08/03 10:20:52;;;;;;;0.00;0.00;;;31.20;82.70;226.50;231333.00;;;;5037948;28;20203;-76
2022/08/03 10:23:23;;;;;;;0.00;0.00;;;31.40;82.70;226.50;231333.00;;;;5034138;28;20214;-76
2022/08/03 10:26:02;;;;;;;0.00;0.00;;;31.50;81.80;226.50;231333.00;;;;5034325;28;20725;-76
2022/08/03 10:28:37;;;;;;;0.00;0.00;;;31.70;81.10;226.50;231333.00;;;;5034009;28;20197;-76
2022/08/03 10:31:14;;;;;;;0.00;0.00;;;32.00;80.60;226.50;231333.00;;;;5036072;28;20266;-76
2022/08/03 10:33:49;;;;;;;0.00;0.00;;;32.20;79.80;226.50;231333.00;;;;5033782;28;20194;-75
2022/08/03 10:36:27;;;;;;;0.00;0.00;;;32.30;78.70;226.50;231333.00;;;;5033575;28;20190;-75
2022/08/03 10:38:58;;;;;;;0.00;0.00;;;32.50;78.40;226.50;231333.00;;;;5016371;28;20654;-75
2022/08/03 10:41:35;;;;;;;0.00;0.00;;;32.30;77.50;226.50;231333.00;;;;5033718;28;20581;-75
2022/08/03 10:44:09;;;;;;;0.00;0.00;;;32.10;77.70;226.50;231333.00;;;;5034001;28;20558;-76
2022/08/03 10:46:40;;;;;;;0.00;0.00;;;32.10;77.60;226.50;231333.00;;;;5037814;28;20549;-77
2022/08/03 10:49:14;;;;;;;0.00;0.00;;;32.00;77.50;226.50;231333.00;;;;5038637;28;20239;-76
2022/08/03 10:51:44;;;;;;;0.00;0.00;;;32.20;76.90;226.50;231333.00;;;;5053227;28;20305;-76
2022/08/03 10:57:47;;;;;;;0.00;0.00;;;32.30;74.70;226.50;231333.00;;;;4952620;29;20414;-77
2022/08/03 11:00:18;;;;;;;0.00;0.00;;;32.60;74.50;226.50;231333.00;;;;5020771;28;20211;-76
2022/08/03 11:03:10;;;;;;;0.00;0.00;;;32.50;75.00;226.50;231333.00;;;;5033014;28;20574;-76
2022/08/03 11:05:42;;;;;;;0.00;0.00;;;32.60;75.20;226.50;231333.00;;;;5035258;28;20277;-77
2022/08/03 11:08:33;;;;;;;0.00;0.00;;;32.50;72.70;226.50;231333.00;;;;5032892;28;20198;-75
2022/08/03 11:11:28;;;;;;;0.00;0.00;;;32.60;72.60;226.50;231333.00;;;;5031093;28;20257;-75
2022/08/03 11:14:03;;;;;;;0.00;0.00;;;32.60;72.00;226.50;231333.00;;;;5033166;28;20286;-76
2022/08/03 11:16:34;;;;;;;0.00;0.00;;;32.80;72.90;226.50;231333.00;;;;5033421;28;20205;-76